Time;durP1;ratioP1;P1;durP2;ratioP2;P2;SDS_P1;SDS_P2;PMS_P1;PMS_P2;Temp;Humidity;BMP_temperature;BMP_pressure;BME280_temperature;BME280_humidity;BME280_pressure;Samples;Min_cycle;Max_cycle;Signal;HPM_P1;HPM_P2
2022/04/04 00:00:03;;;;;;;3.33;1.73;;;;;;;;;;5110937;28;20036;-78
2022/04/04 00:02:29;;;;;;;3.65;1.88;;;;;;;;;;5060161;28;20118;-78
2022/04/04 00:04:54;;;;;;;3.40;1.92;;;;;;;;;;5076566;28;20043;-78
2022/04/04 00:07:20;;;;;;;3.10;1.55;;;;;;;;;;5111048;28;20039;-78
2022/04/04 00:09:46;;;;;;;5.07;2.08;;;;;;;;;;5076951;28;20054;-78
2022/04/04 00:12:12;;;;;;;2.80;1.40;;;;;;;;;;5077266;28;20079;-77
2022/04/04 00:14:37;;;;;;;3.40;1.30;;;;;;;;;;5093179;28;20059;-78
2022/04/04 00:17:03;;;;;;;2.78;1.40;;;;;;;;;;5093825;28;20482;-77
2022/04/04 00:19:28;;;;;;;3.33;1.73;;;;;;;;;;5076805;28;20060;-78
2022/04/04 00:21:54;;;;;;;3.60;1.50;;;;;;;;;;5076803;28;20432;-78
2022/04/04 00:24:19;;;;;;;2.58;1.67;;;;;;;;;;5073067;28;20031;-77
2022/04/04 00:26:45;;;;;;;2.88;1.30;;;;;;;;;;5056053;28;20036;-77
2022/04/04 00:29:10;;;;;;;2.55;1.42;;;;;;;;;;5073173;28;20448;-77
2022/04/04 00:31:37;;;;;;;3.20;1.30;;;;;;;;;;5040152;28;20105;-78
2022/04/04 00:34:02;;;;;;;3.75;1.35;;;;;;;;;;5073272;28;20032;-77
2022/04/04 00:36:28;;;;;;;2.97;1.25;;;;;;;;;;5073262;28;20086;-78
2022/04/04 00:38:53;;;;;;;3.15;1.77;;;;;;;;;;5056423;28;20040;-78
2022/04/04 00:41:19;;;;;;;2.78;1.50;;;;;;;;;;5072894;28;20070;-78
2022/04/04 00:43:45;;;;;;;2.40;1.52;;;;;;;;;;5077223;28;20023;-78
2022/04/04 00:46:10;;;;;;;3.28;1.35;;;;;;;;;;5076640;28;20054;-78
2022/04/04 00:48:36;;;;;;;2.55;1.65;;;;;;;;;;5060013;28;20032;-77
2022/04/04 00:51:02;;;;;;;3.55;1.83;;;;;;;;;;5076206;28;20047;-77
2022/04/04 00:53:27;;;;;;;3.10;1.73;;;;;;;;;;5062591;28;20028;-77
2022/04/04 00:55:54;;;;;;;3.25;1.55;;;;;;;;;;5079764;28;20035;-78
2022/04/04 00:58:19;;;;;;;3.47;1.45;;;;;;;;;;5079837;28;20032;-78
2022/04/04 01:00:46;;;;;;;2.22;1.20;;;;;;;;;;5076800;28;20043;-78
2022/04/04 01:03:11;;;;;;;2.33;1.30;;;;;;;;;;5060083;28;20035;-78
2022/04/04 01:05:37;;;;;;;4.63;2.00;;;;;;;;;;5059302;28;20498;-77
2022/04/04 01:08:02;;;;;;;3.35;1.20;;;;;;;;;;5043103;28;20105;-78
2022/04/04 01:10:29;;;;;;;2.92;1.33;;;;;;;;;;5076673;28;20085;-77
2022/04/04 01:12:55;;;;;;;2.22;1.30;;;;;;;;;;5076115;28;20085;-78
2022/04/04 01:15:22;;;;;;;2.38;1.30;;;;;;;;;;5076015;28;20493;-78
2022/04/04 01:17:47;;;;;;;3.10;1.50;;;;;;;;;;5043487;28;20032;-78
2022/04/04 01:20:14;;;;;;;2.63;1.35;;;;;;;;;;5042814;28;20121;-78
2022/04/04 01:22:40;;;;;;;2.42;1.67;;;;;;;;;;5059608;28;20035;-77
2022/04/04 01:25:06;;;;;;;2.95;1.65;;;;;;;;;;5113005;28;20036;-77
2022/04/04 01:27:31;;;;;;;3.25;1.63;;;;;;;;;;5095774;28;20040;-78
2022/04/04 01:29:57;;;;;;;3.47;1.60;;;;;;;;;;5096611;28;20088;-77
2022/04/04 01:32:22;;;;;;;3.00;1.73;;;;;;;;;;5079289;28;20041;-78
2022/04/04 01:34:48;;;;;;;4.47;1.35;;;;;;;;;;5095938;28;20068;-78
2022/04/04 01:37:13;;;;;;;2.72;1.40;;;;;;;;;;5096152;28;20132;-78
2022/04/04 01:39:39;;;;;;;2.35;1.50;;;;;;;;;;5096074;28;20040;-77
2022/04/04 01:42:05;;;;;;;2.88;1.10;;;;;;;;;;5062179;28;20039;-78
2022/04/04 01:44:31;;;;;;;3.35;1.33;;;;;;;;;;5079105;28;20524;-78
2022/04/04 01:46:56;;;;;;;2.78;1.30;;;;;;;;;;5096117;28;20031;-77
2022/04/04 01:49:22;;;;;;;2.15;1.35;;;;;;;;;;5096305;28;20035;-78
2022/04/04 01:51:47;;;;;;;2.50;1.42;;;;;;;;;;5095902;28;20057;-77
2022/04/04 01:54:13;;;;;;;2.70;1.33;;;;;;;;;;5112627;28;20035;-77
2022/04/04 01:56:40;;;;;;;3.40;1.40;;;;;;;;;;5078566;28;20108;-78
2022/04/04 01:59:06;;;;;;;3.15;1.77;;;;;;;;;;5092219;28;20044;-78
2022/04/04 02:01:34;;;;;;;2.10;1.13;;;;;;;;;;5092263;28;20031;-78
2022/04/04 02:03:59;;;;;;;3.20;1.40;;;;;;;;;;5074435;28;20039;-77
2022/04/04 02:06:25;;;;;;;2.88;1.63;;;;;;;;;;5058585;28;20044;-78
2022/04/04 02:08:50;;;;;;;2.30;1.45;;;;;;;;;;5075002;28;20047;-77
2022/04/04 02:11:19;;;;;;;2.28;1.05;;;;;;;;;;5075033;28;20524;-77
2022/04/04 02:13:45;;;;;;;2.20;1.20;;;;;;;;;;5075401;28;20486;-78
2022/04/04 02:16:11;;;;;;;3.15;1.83;;;;;;;;;;5091780;28;20046;-77
2022/04/04 02:18:36;;;;;;;2.15;0.98;;;;;;;;;;5058855;28;20493;-78
2022/04/04 02:21:02;;;;;;;3.15;1.40;;;;;;;;;;5041905;28;20082;-77
2022/04/04 02:23:28;;;;;;;3.67;1.33;;;;;;;;;;5061093;28;20111;-77
2022/04/04 02:25:55;;;;;;;2.65;1.48;;;;;;;;;;5090782;28;20110;-78
2022/04/04 02:28:21;;;;;;;1.88;1.20;;;;;;;;;;5074970;28;20036;-77
2022/04/04 02:30:47;;;;;;;2.30;1.38;;;;;;;;;;5091772;28;20043;-78
2022/04/04 02:33:12;;;;;;;2.20;1.27;;;;;;;;;;5074814;28;20047;-78
2022/04/04 02:35:38;;;;;;;2.10;1.10;;;;;;;;;;5057983;28;20036;-77
2022/04/04 02:38:03;;;;;;;3.58;1.67;;;;;;;;;;5074563;28;20036;-77
2022/04/04 02:40:29;;;;;;;2.25;1.25;;;;;;;;;;5057888;28;20036;-77
2022/04/04 02:42:55;;;;;;;2.63;1.55;;;;;;;;;;5074894;28;20036;-77
2022/04/04 02:45:20;;;;;;;3.45;1.50;;;;;;;;;;5058420;28;20566;-77
2022/04/04 02:47:46;;;;;;;2.65;1.30;;;;;;;;;;5094680;28;20055;-77
2022/04/04 02:50:12;;;;;;;2.65;1.33;;;;;;;;;;5077993;28;20509;-77
2022/04/04 02:52:38;;;;;;;2.38;1.65;;;;;;;;;;5094564;28;20039;-77
2022/04/04 02:57:49;;;;;;;2.75;1.70;;;;;;;;;;5097077;28;20024;-77
2022/04/04 03:00:19;;;;;;;2.78;1.20;;;;;;;;;;5091238;28;20035;-77
2022/04/04 03:02:45;;;;;;;3.63;2.63;;;;;;;;;;5074908;28;20034;-78
2022/04/04 03:05:11;;;;;;;2.60;1.40;;;;;;;;;;5074290;28;20570;-77
2022/04/04 03:07:36;;;;;;;2.97;1.52;;;;;;;;;;5057516;28;20043;-77
2022/04/04 03:10:03;;;;;;;3.28;1.55;;;;;;;;;;5073982;28;20043;-77
2022/04/04 03:12:29;;;;;;;2.92;1.48;;;;;;;;;;5074288;28;20036;-77
2022/04/04 03:14:54;;;;;;;3.95;1.60;;;;;;;;;;5066838;28;20425;-77
2022/04/04 03:17:20;;;;;;;2.47;1.30;;;;;;;;;;5091121;28;20047;-77
2022/04/04 03:19:46;;;;;;;2.30;1.23;;;;;;;;;;5090676;28;20506;-77
2022/04/04 03:22:12;;;;;;;3.28;1.70;;;;;;;;;;5057085;28;20414;-77
2022/04/04 03:24:37;;;;;;;3.13;1.33;;;;;;;;;;5090119;28;20024;-77
2022/04/04 03:27:04;;;;;;;3.60;1.50;;;;;;;;;;5073675;28;20086;-77
2022/04/04 03:29:29;;;;;;;2.58;1.50;;;;;;;;;;5074158;28;20474;-77
2022/04/04 03:31:55;;;;;;;2.42;1.30;;;;;;;;;;5073885;28;20039;-77
2022/04/04 03:34:21;;;;;;;4.68;1.23;;;;;;;;;;5074020;28;20052;-78
2022/04/04 03:36:47;;;;;;;3.03;1.45;;;;;;;;;;5090566;28;20071;-77
2022/04/04 03:39:13;;;;;;;2.88;1.52;;;;;;;;;;5090280;28;20064;-78
2022/04/04 03:41:39;;;;;;;2.60;1.23;;;;;;;;;;5090707;28;20051;-77
2022/04/04 03:44:06;;;;;;;2.67;1.52;;;;;;;;;;5093736;28;20031;-78
2022/04/04 03:46:32;;;;;;;2.17;1.30;;;;;;;;;;5060847;28;20134;-78
2022/04/04 03:48:58;;;;;;;3.20;1.48;;;;;;;;;;5076952;28;20118;-78
2022/04/04 03:51:23;;;;;;;3.15;1.70;;;;;;;;;;5093952;28;20049;-77
2022/04/04 03:53:49;;;;;;;2.60;1.60;;;;;;;;;;5076456;28;20032;-77
2022/04/04 03:56:15;;;;;;;3.00;1.92;;;;;;;;;;5093802;28;20101;-78
2022/04/04 03:58:41;;;;;;;3.17;1.45;;;;;;;;;;5093866;28;20452;-77
2022/04/04 04:01:07;;;;;;;3.15;1.10;;;;;;;;;;5110246;28;20036;-78
2022/04/04 04:03:34;;;;;;;4.07;1.60;;;;;;;;;;5093355;28;20044;-78
2022/04/04 04:06:11;;;;;;;3.42;1.60;;;;;;;;;;5060055;28;20410;-78
2022/04/04 04:08:46;;;;;;;2.88;1.38;;;;;;;;;;5094933;28;20486;-78
2022/04/04 04:11:13;;;;;;;4.00;1.40;;;;;;;;;;5076818;28;20051;-78
2022/04/04 04:13:41;;;;;;;2.35;1.25;;;;;;;;;;5094102;28;20069;-77
2022/04/04 04:16:09;;;;;;;4.07;1.98;;;;;;;;;;5093787;28;20035;-77
2022/04/04 04:18:35;;;;;;;2.35;1.25;;;;;;;;;;5077218;28;20028;-77
2022/04/04 04:21:02;;;;;;;4.13;1.27;;;;;;;;;;5060404;28;20032;-78
2022/04/04 04:23:27;;;;;;;2.70;1.48;;;;;;;;;;5073293;28;20521;-78
2022/04/04 04:25:53;;;;;;;2.60;1.35;;;;;;;;;;5072835;28;20147;-78
2022/04/04 04:28:18;;;;;;;2.83;1.25;;;;;;;;;;5075866;28;20035;-78
2022/04/04 04:30:44;;;;;;;2.88;1.65;;;;;;;;;;5077345;28;20044;-78
2022/04/04 04:33:09;;;;;;;3.25;0.80;;;;;;;;;;5076955;28;20036;-77
2022/04/04 04:35:35;;;;;;;2.40;1.05;;;;;;;;;;5043876;28;20060;-77
2022/04/04 04:38:00;;;;;;;1.85;1.00;;;;;;;;;;5077037;28;20036;-77
2022/04/04 04:40:27;;;;;;;3.13;1.42;;;;;;;;;;5093904;28;20121;-78
2022/04/04 04:42:53;;;;;;;2.40;1.10;;;;;;;;;;5094063;28;20067;-79
2022/04/04 04:45:18;;;;;;;2.17;1.10;;;;;;;;;;5073720;28;20060;-78
2022/04/04 04:47:44;;;;;;;1.70;1.02;;;;;;;;;;5076861;28;20119;-78
2022/04/04 04:50:10;;;;;;;2.15;1.20;;;;;;;;;;5076583;28;20447;-79
2022/04/04 04:52:36;;;;;;;2.63;1.05;;;;;;;;;;5076957;28;20047;-78
2022/04/04 04:55:02;;;;;;;2.22;1.15;;;;;;;;;;5076881;28;20164;-78
2022/04/04 04:57:27;;;;;;;2.42;1.38;;;;;;;;;;5082524;28;20081;-78
2022/04/04 04:59:53;;;;;;;2.70;1.38;;;;;;;;;;5093260;28;20089;-79
2022/04/04 05:02:18;;;;;;;2.97;1.33;;;;;;;;;;5075793;28;20036;-79
2022/04/04 05:04:44;;;;;;;2.22;1.17;;;;;;;;;;5073367;28;20036;-79
2022/04/04 05:07:09;;;;;;;1.83;1.00;;;;;;;;;;5084872;28;20047;-78
2022/04/04 05:09:35;;;;;;;2.58;1.20;;;;;;;;;;5078496;28;20039;-78
2022/04/04 05:12:00;;;;;;;2.38;0.88;;;;;;;;;;5077326;28;20062;-78
2022/04/04 05:14:26;;;;;;;2.00;1.10;;;;;;;;;;5096134;28;20114;-78
2022/04/04 05:16:53;;;;;;;2.15;1.00;;;;;;;;;;5095879;28;20039;-77
2022/04/04 05:19:19;;;;;;;2.80;1.20;;;;;;;;;;5113308;28;20078;-78
2022/04/04 05:21:45;;;;;;;3.35;0.80;;;;;;;;;;5113383;28;20065;-78
2022/04/04 05:24:10;;;;;;;2.33;1.10;;;;;;;;;;5075451;28;20048;-77
2022/04/04 05:26:36;;;;;;;3.63;1.25;;;;;;;;;;5095594;28;20035;-78
2022/04/04 05:29:01;;;;;;;2.45;1.10;;;;;;;;;;5079485;28;20054;-77
2022/04/04 05:31:27;;;;;;;1.92;0.93;;;;;;;;;;5096617;28;20040;-78
2022/04/04 05:33:54;;;;;;;5.00;1.00;;;;;;;;;;5096018;28;20089;-77
2022/04/04 05:36:20;;;;;;;2.70;0.98;;;;;;;;;;5079707;28;20055;-76
2022/04/04 05:38:46;;;;;;;4.63;1.27;;;;;;;;;;5095555;28;20492;-76
2022/04/04 05:41:12;;;;;;;3.30;1.05;;;;;;;;;;5062738;28;20039;-76
2022/04/04 05:43:37;;;;;;;2.88;0.80;;;;;;;;;;5095734;28;20467;-76
2022/04/04 05:46:03;;;;;;;2.30;0.90;;;;;;;;;;5079264;28;20035;-77
2022/04/04 05:48:30;;;;;;;1.90;1.00;;;;;;;;;;5095676;28;20154;-78
2022/04/04 05:50:56;;;;;;;3.65;1.00;;;;;;;;;;5096032;28;20047;-78
2022/04/04 05:53:22;;;;;;;2.72;0.80;;;;;;;;;;5078497;28;20039;-78
2022/04/04 05:55:47;;;;;;;3.90;1.58;;;;;;;;;;5078279;28;20401;-79
2022/04/04 05:58:13;;;;;;;5.28;1.23;;;;;;;;;;5075062;28;20555;-78
2022/04/04 06:00:38;;;;;;;4.90;1.10;;;;;;;;;;5092752;28;20042;-78
2022/04/04 06:03:03;;;;;;;12.82;2.63;;;;;;;;;;5078283;28;20494;-78
2022/04/04 06:05:30;;;;;;;5.18;1.90;;;;;;;;;;5061767;28;20061;-79
2022/04/04 06:07:55;;;;;;;5.25;3.00;;;;;;;;;;5078679;28;20042;-79
2022/04/04 06:10:21;;;;;;;6.28;2.60;;;;;;;;;;5062018;28;20039;-79
2022/04/04 06:12:46;;;;;;;7.45;2.33;;;;;;;;;;5078639;28;20118;-79
2022/04/04 06:15:12;;;;;;;6.47;2.30;;;;;;;;;;5078467;28;20028;-78
2022/04/04 06:17:38;;;;;;;6.93;2.03;;;;;;;;;;5078224;28;20042;-78
2022/04/04 06:20:05;;;;;;;3.55;1.88;;;;;;;;;;5062405;28;20034;-79
2022/04/04 06:22:36;;;;;;;7.25;1.83;;;;;;;;;;5078574;28;20046;-78
2022/04/04 06:25:01;;;;;;;4.93;1.98;;;;;;;;;;5061213;28;20570;-78
2022/04/04 06:27:27;;;;;;;4.18;1.92;;;;;;;;;;5077813;28;20039;-79
2022/04/04 06:29:52;;;;;;;5.53;1.92;;;;;;;;;;5078180;28;20035;-78
2022/04/04 06:32:18;;;;;;;5.95;3.33;;;;;;;;;;5091978;28;20414;-78
2022/04/04 06:34:44;;;;;;;5.90;2.00;;;;;;;;;;5094738;28;20027;-78
2022/04/04 06:37:10;;;;;;;2.78;1.35;;;;;;;;;;5078738;28;20095;-78
2022/04/04 06:39:36;;;;;;;5.90;1.67;;;;;;;;;;5078253;28;20122;-78
2022/04/04 06:42:02;;;;;;;5.15;1.80;;;;;;;;;;5077744;28;20421;-78
2022/04/04 06:44:28;;;;;;;3.17;1.58;;;;;;;;;;5101326;28;20039;-77
2022/04/04 06:46:54;;;;;;;5.32;1.30;;;;;;;;;;5074438;28;20401;-78
2022/04/04 06:49:19;;;;;;;4.57;1.52;;;;;;;;;;5074332;28;20075;-77
2022/04/04 06:51:45;;;;;;;4.88;1.48;;;;;;;;;;5060881;28;20443;-77
2022/04/04 06:54:11;;;;;;;4.45;1.40;;;;;;;;;;5076836;28;20126;-77
2022/04/04 06:56:36;;;;;;;3.75;1.23;;;;;;;;;;5093864;28;20042;-77
2022/04/04 06:59:02;;;;;;;4.47;1.25;;;;;;;;;;5094492;28;20473;-77
2022/04/04 07:01:27;;;;;;;4.93;1.42;;;;;;;;;;5077713;28;20043;-77
2022/04/04 07:03:53;;;;;;;6.00;1.10;;;;;;;;;;5094205;28;20120;-77
2022/04/04 07:06:18;;;;;;;3.38;0.90;;;;;;;;;;5112879;28;20038;-77
2022/04/04 07:08:44;;;;;;;3.58;1.30;;;;;;;;;;5094079;28;20062;-77
2022/04/04 07:11:10;;;;;;;4.15;1.00;;;;;;;;;;5077008;28;20558;-77
2022/04/04 07:13:36;;;;;;;6.40;1.00;;;;;;;;;;5091569;28;20465;-77
2022/04/04 07:16:03;;;;;;;2.95;0.98;;;;;;;;;;5073449;28;20036;-77
2022/04/04 07:18:28;;;;;;;4.88;1.10;;;;;;;;;;5057050;28;20115;-77
2022/04/04 07:20:54;;;;;;;1.55;0.70;;;;;;;;;;5073592;28;20028;-77
2022/04/04 07:23:20;;;;;;;2.75;0.80;;;;;;;;;;5090006;28;20036;-77
2022/04/04 07:25:47;;;;;;;3.28;0.90;;;;;;;;;;5056810;28;20573;-77
2022/04/04 07:28:13;;;;;;;2.83;1.13;;;;;;;;;;5074205;28;20494;-77
2022/04/04 07:30:39;;;;;;;2.28;1.02;;;;;;;;;;5074034;28;20032;-77
2022/04/04 07:33:04;;;;;;;3.70;1.20;;;;;;;;;;5073743;28;20044;-77
2022/04/04 07:35:30;;;;;;;1.33;0.60;;;;;;;;;;5073889;28;20042;-77
2022/04/04 07:37:55;;;;;;;3.25;0.82;;;;;;;;;;5073585;28;20556;-77
2022/04/04 07:40:21;;;;;;;1.42;0.65;;;;;;;;;;5073628;28;20047;-77
2022/04/04 07:42:46;;;;;;;3.33;1.23;;;;;;;;;;5073934;28;20035;-77
2022/04/04 07:45:13;;;;;;;3.45;0.85;;;;;;;;;;5089672;28;20032;-76
2022/04/04 07:47:39;;;;;;;3.13;1.08;;;;;;;;;;5094170;28;20031;-77
2022/04/04 07:50:06;;;;;;;4.45;0.90;;;;;;;;;;5094128;28;20107;-77
2022/04/04 07:52:31;;;;;;;4.63;0.95;;;;;;;;;;5094249;28;20035;-77
2022/04/04 07:54:56;;;;;;;5.78;1.10;;;;;;;;;;5072329;28;20032;-77
2022/04/04 07:57:22;;;;;;;4.95;1.40;;;;;;;;;;5066714;28;20035;-75
2022/04/04 07:59:49;;;;;;;6.13;1.35;;;;;;;;;;5089938;28;20490;-76
2022/04/04 08:02:15;;;;;;;11.45;1.35;;;;;;;;;;5093261;28;20507;-75
2022/04/04 08:04:40;;;;;;;7.78;1.52;;;;;;;;;;5081007;28;20040;-76
2022/04/04 08:07:06;;;;;;;6.05;1.23;;;;;;;;;;5096956;28;20042;-76
2022/04/04 08:09:31;;;;;;;4.50;1.30;;;;;;;;;;5097019;28;20047;-76
2022/04/04 08:11:57;;;;;;;7.70;1.80;;;;;;;;;;5097461;28;20035;-76
2022/04/04 08:14:23;;;;;;;6.20;1.60;;;;;;;;;;5089105;28;20031;-76
2022/04/04 08:16:48;;;;;;;4.38;1.30;;;;;;;;;;5097348;28;20401;-76
2022/04/04 08:19:15;;;;;;;6.05;1.58;;;;;;;;;;5097938;28;20028;-75
2022/04/04 08:21:44;;;;;;;4.85;1.67;;;;;;;;;;5097578;28;20039;-76
2022/04/04 08:24:09;;;;;;;5.80;1.15;;;;;;;;;;5097556;28;20042;-76
2022/04/04 08:26:35;;;;;;;3.95;0.90;;;;;;;;;;5093440;28;20044;-75
2022/04/04 08:29:02;;;;;;;6.35;1.02;;;;;;;;;;5095036;28;20039;-76
2022/04/04 08:31:27;;;;;;;6.43;1.42;;;;;;;;;;5076963;28;20229;-76
2022/04/04 08:33:53;;;;;;;4.47;1.70;;;;;;;;;;5076758;28;20044;-76
2022/04/04 08:36:18;;;;;;;4.45;1.00;;;;;;;;;;5076962;28;20497;-76
2022/04/04 08:38:44;;;;;;;5.20;1.23;;;;;;;;;;5060164;28;20028;-76
2022/04/04 08:41:10;;;;;;;2.75;0.85;;;;;;;;;;5093515;28;20047;-75
2022/04/04 08:43:37;;;;;;;4.50;1.20;;;;;;;;;;5079703;28;20468;-76
2022/04/04 08:46:04;;;;;;;2.35;0.93;;;;;;;;;;5097525;28;20043;-76
2022/04/04 08:48:30;;;;;;;3.55;1.00;;;;;;;;;;5115502;28;20039;-76
2022/04/04 08:50:56;;;;;;;4.90;0.80;;;;;;;;;;5076672;28;20568;-75
2022/04/04 08:53:22;;;;;;;2.90;0.93;;;;;;;;;;5076385;28;20123;-76
2022/04/04 08:55:47;;;;;;;2.03;0.77;;;;;;;;;;5076606;28;20048;-76
2022/04/04 08:58:13;;;;;;;2.00;1.10;;;;;;;;;;5085218;28;20040;-76
2022/04/04 09:00:38;;;;;;;4.30;1.20;;;;;;;;;;5110972;28;20447;-75
2022/04/04 09:03:05;;;;;;;4.28;1.00;;;;;;;;;;5063075;28;20046;-76
2022/04/04 09:05:34;;;;;;;2.70;0.88;;;;;;;;;;5062942;28;20055;-76
2022/04/04 09:08:09;;;;;;;2.70;1.00;;;;;;;;;;5096555;28;20073;-76
2022/04/04 09:10:40;;;;;;;3.75;1.00;;;;;;;;;;5113741;28;20036;-75
2022/04/04 09:13:15;;;;;;;3.38;1.00;;;;;;;;;;5079252;28;20047;-76
2022/04/04 09:16:03;;;;;;;5.65;1.50;;;;;;;;;;5096939;28;20039;-76
2022/04/04 09:18:41;;;;;;;2.15;1.00;;;;;;;;;;5096542;28;20031;-75
2022/04/04 09:21:19;;;;;;;4.63;0.80;;;;;;;;;;5113477;28;20036;-76
2022/04/04 09:23:45;;;;;;;4.05;0.82;;;;;;;;;;5113241;28;20059;-76
2022/04/04 09:26:29;;;;;;;3.42;0.95;;;;;;;;;;5112608;28;20036;-76
2022/04/04 09:29:05;;;;;;;4.82;1.08;;;;;;;;;;5114411;28;20028;-75
2022/04/04 09:31:31;;;;;;;2.55;0.85;;;;;;;;;;5097056;28;20031;-75
2022/04/04 09:33:59;;;;;;;3.75;1.00;;;;;;;;;;5096398;28;20490;-76
2022/04/04 09:36:24;;;;;;;4.35;0.80;;;;;;;;;;5095839;28;20038;-76
2022/04/04 09:39:09;;;;;;;2.63;0.85;;;;;;;;;;5112997;28;20439;-76
2022/04/04 09:41:35;;;;;;;3.85;1.30;;;;;;;;;;5079121;28;20109;-76
2022/04/04 09:44:04;;;;;;;3.95;1.10;;;;;;;;;;5095692;28;20122;-76
2022/04/04 09:46:31;;;;;;;2.65;1.15;;;;;;;;;;5079859;28;20036;-75
2022/04/04 09:49:00;;;;;;;3.33;0.85;;;;;;;;;;5062226;28;20027;-76
2022/04/04 09:51:43;;;;;;;2.45;0.90;;;;;;;;;;5114172;28;20039;-76
2022/04/04 09:54:20;;;;;;;3.67;1.45;;;;;;;;;;5112835;28;20035;-76
2022/04/04 09:56:46;;;;;;;5.60;0.85;;;;;;;;;;5079565;28;20513;-76
2022/04/04 09:59:14;;;;;;;3.33;1.00;;;;;;;;;;5075728;28;20051;-76
2022/04/04 10:01:40;;;;;;;4.78;1.00;;;;;;;;;;5075421;28;20032;-76
2022/04/04 10:04:06;;;;;;;3.42;1.00;;;;;;;;;;5074459;28;20170;-76
2022/04/04 10:06:32;;;;;;;2.97;0.80;;;;;;;;;;5075364;28;20054;-76
2022/04/04 10:08:58;;;;;;;2.90;0.90;;;;;;;;;;5062750;28;20040;-76
2022/04/04 10:11:24;;;;;;;6.38;1.40;;;;;;;;;;5083997;28;20033;-76
2022/04/04 10:13:52;;;;;;;2.70;0.90;;;;;;;;;;5075380;28;20089;-76
2022/04/04 10:16:18;;;;;;;3.17;0.70;;;;;;;;;;5075351;28;20509;-76
2022/04/04 10:18:43;;;;;;;5.28;1.10;;;;;;;;;;5074979;28;20111;-76
2022/04/04 10:21:09;;;;;;;4.45;1.30;;;;;;;;;;5058360;28;20035;-76
2022/04/04 10:23:36;;;;;;;5.50;1.33;;;;;;;;;;5073939;28;20056;-76
2022/04/04 10:26:02;;;;;;;7.85;1.67;;;;;;;;;;5073776;28;20048;-76
2022/04/04 10:28:29;;;;;;;5.13;2.17;;;;;;;;;;5075122;28;20345;-76
2022/04/04 10:31:11;;;;;;;4.43;1.75;;;;;;;;;;5075777;28;20027;-76
2022/04/04 10:33:36;;;;;;;7.17;1.40;;;;;;;;;;5090252;28;20043;-76
2022/04/04 10:36:06;;;;;;;8.27;2.75;;;;;;;;;;5094294;28;20405;-76
2022/04/04 10:38:37;;;;;;;17.20;7.72;;;;;;;;;;5094058;28;20043;-76
2022/04/04 10:41:14;;;;;;;18.95;8.65;;;;;;;;;;5074679;28;20083;-77
2022/04/04 10:43:42;;;;;;;20.42;9.60;;;;;;;;;;5077401;28;20030;-76
2022/04/04 10:46:12;;;;;;;23.00;8.65;;;;;;;;;;5078646;28;20498;-76
2022/04/04 10:48:38;;;;;;;17.92;9.05;;;;;;;;;;5095357;28;20114;-76
2022/04/04 10:51:19;;;;;;;16.35;8.00;;;;;;;;;;5086944;28;20057;-76
2022/04/04 10:53:49;;;;;;;18.50;8.00;;;;;;;;;;5108567;28;20077;-77
2022/04/04 10:56:22;;;;;;;14.77;7.35;;;;;;;;;;5110616;28;20489;-76
2022/04/04 10:58:49;;;;;;;21.00;8.65;;;;;;;;;;5092079;28;20038;-76
2022/04/04 11:01:15;;;;;;;18.17;8.68;;;;;;;;;;5092743;28;20040;-76
2022/04/04 11:03:41;;;;;;;15.27;6.65;;;;;;;;;;5077536;28;20032;-76
2022/04/04 11:09:18;;;;;;;15.77;7.88;;;;;;;;;;5109151;28;20529;-76
2022/04/04 11:11:57;;;;;;;17.00;6.75;;;;;;;;;;5110631;28;20039;-76
2022/04/04 11:14:28;;;;;;;11.40;5.70;;;;;;;;;;5093555;28;20447;-76
2022/04/04 11:17:06;;;;;;;17.35;6.75;;;;;;;;;;5112434;28;20032;-76
2022/04/04 11:19:53;;;;;;;12.85;5.28;;;;;;;;;;5110983;28;20081;-76
2022/04/04 11:22:20;;;;;;;14.07;5.10;;;;;;;;;;5106613;28;20040;-76
2022/04/04 11:24:58;;;;;;;15.65;5.55;;;;;;;;;;5091152;28;20032;-76
2022/04/04 11:27:27;;;;;;;8.07;4.25;;;;;;;;;;5058313;28;20020;-76
2022/04/04 11:29:52;;;;;;;10.00;4.72;;;;;;;;;;5060219;28;20054;-76
2022/04/04 11:32:33;;;;;;;10.02;4.13;;;;;;;;;;5090677;28;20035;-77
2022/04/04 11:35:09;;;;;;;11.15;3.80;;;;;;;;;;5078588;28;20414;-76
2022/04/04 11:37:42;;;;;;;14.68;4.45;;;;;;;;;;5110500;28;20069;-76
2022/04/04 11:40:13;;;;;;;12.57;4.95;;;;;;;;;;5111113;28;20039;-77
2022/04/04 11:42:40;;;;;;;7.15;3.40;;;;;;;;;;5110561;28;20032;-76
2022/04/04 11:45:06;;;;;;;9.90;3.10;;;;;;;;;;5090303;28;20486;-77
2022/04/04 11:47:32;;;;;;;8.43;3.22;;;;;;;;;;5073392;28;20032;-77
2022/04/04 11:50:01;;;;;;;9.93;3.40;;;;;;;;;;5073871;28;20085;-77
2022/04/04 11:52:26;;;;;;;8.90;3.42;;;;;;;;;;5073766;28;20405;-77
2022/04/04 11:54:52;;;;;;;8.95;3.33;;;;;;;;;;5090062;28;20046;-77
2022/04/04 11:57:17;;;;;;;7.88;3.67;;;;;;;;;;5078353;28;20040;-77
2022/04/04 11:59:47;;;;;;;7.18;2.78;;;;;;;;;;5110432;28;20043;-77
2022/04/04 12:02:13;;;;;;;6.13;2.70;;;;;;;;;;5111611;28;20036;-77
2022/04/04 12:04:39;;;;;;;7.25;3.10;;;;;;;;;;5093705;28;20504;-77
2022/04/04 12:07:05;;;;;;;6.75;2.78;;;;;;;;;;5092997;28;20031;-77
2022/04/04 12:09:34;;;;;;;8.98;3.95;;;;;;;;;;5076610;28;20046;-78
2022/04/04 12:12:04;;;;;;;8.85;3.53;;;;;;;;;;5076928;28;20067;-78
2022/04/04 12:14:32;;;;;;;7.70;3.95;;;;;;;;;;5110599;28;20035;-78
2022/04/04 12:16:58;;;;;;;9.80;4.25;;;;;;;;;;5094039;28;20069;-78
2022/04/04 12:19:23;;;;;;;7.25;3.67;;;;;;;;;;5110615;28;20036;-78
2022/04/04 12:21:49;;;;;;;7.78;3.35;;;;;;;;;;5093098;28;20114;-78
2022/04/04 12:27:09;;;;;;;6.70;3.17;;;;;;;;;;5083788;28;20058;-79
2022/04/04 12:29:41;;;;;;;9.80;3.08;;;;;;;;;;5073643;28;20486;-79
2022/04/04 12:32:13;;;;;;;6.35;2.63;;;;;;;;;;5083185;28;20036;-79
2022/04/04 12:34:38;;;;;;;7.20;3.10;;;;;;;;;;5073191;28;20028;-79
2022/04/04 12:37:05;;;;;;;5.32;2.65;;;;;;;;;;5084979;28;20575;-83
2022/04/04 12:39:32;;;;;;;4.88;2.70;;;;;;;;;;5054114;28;20557;-81
2022/04/04 12:41:57;;;;;;;5.68;2.83;;;;;;;;;;5037528;28;20044;-81
2022/04/04 12:44:27;;;;;;;5.47;2.13;;;;;;;;;;5056241;28;20387;-81
2022/04/04 12:47:09;;;;;;;5.55;2.58;;;;;;;;;;5073279;28;20032;-81
2022/04/04 12:49:35;;;;;;;6.07;2.38;;;;;;;;;;5059377;28;20036;-84
2022/04/04 12:52:05;;;;;;;5.43;2.15;;;;;;;;;;5060335;28;20118;-82
2022/04/04 12:54:39;;;;;;;4.70;2.60;;;;;;;;;;5077277;28;20036;-82
2022/04/04 12:57:08;;;;;;;5.88;2.58;;;;;;;;;;5046251;28;20046;-83
2022/04/04 12:59:51;;;;;;;6.30;2.25;;;;;;;;;;5076708;28;20028;-80
2022/04/04 13:02:17;;;;;;;5.78;2.28;;;;;;;;;;5076946;28;20046;-80
2022/04/04 13:04:42;;;;;;;5.47;2.30;;;;;;;;;;5075993;28;20036;-79
2022/04/04 13:07:17;;;;;;;3.50;1.73;;;;;;;;;;5059692;28;20126;-80
2022/04/04 13:09:52;;;;;;;4.00;1.63;;;;;;;;;;5076404;28;20166;-79
2022/04/04 13:12:25;;;;;;;3.28;2.15;;;;;;;;;;5076795;28;20036;-80
2022/04/04 13:14:50;;;;;;;4.13;2.13;;;;;;;;;;5076164;28;20085;-80
2022/04/04 13:17:16;;;;;;;4.65;1.60;;;;;;;;;;5093698;28;20126;-79
2022/04/04 13:19:41;;;;;;;3.55;1.48;;;;;;;;;;5092622;28;20044;-79
2022/04/04 13:22:07;;;;;;;7.43;1.90;;;;;;;;;;5073267;28;20028;-79
2022/04/04 13:24:34;;;;;;;4.57;1.52;;;;;;;;;;5091105;28;20036;-79
2022/04/04 13:26:59;;;;;;;3.72;1.60;;;;;;;;;;5092681;28;20032;-80
2022/04/04 13:29:24;;;;;;;5.03;1.60;;;;;;;;;;5059140;28;20410;-80
2022/04/04 13:31:50;;;;;;;4.78;1.58;;;;;;;;;;5075823;28;20490;-81
2022/04/04 13:34:16;;;;;;;4.10;1.70;;;;;;;;;;5075898;28;20036;-81
2022/04/04 13:36:41;;;;;;;13.07;2.60;;;;;;;;;;5083623;28;20042;-81
2022/04/04 13:39:09;;;;;;;8.57;1.88;;;;;;;;;;5065857;28;20039;-81
2022/04/04 13:41:37;;;;;;;6.30;1.85;;;;;;;;;;5042455;28;20032;-81
2022/04/04 13:44:02;;;;;;;5.88;1.40;;;;;;;;;;5059152;28;20498;-81
2022/04/04 13:46:28;;;;;;;4.13;1.80;;;;;;;;;;5075092;28;20065;-81
2022/04/04 13:48:54;;;;;;;5.20;1.58;;;;;;;;;;5075590;28;20484;-81
2022/04/04 13:51:22;;;;;;;4.38;1.90;;;;;;;;;;5076145;28;20127;-80
2022/04/04 13:53:48;;;;;;;10.00;1.80;;;;;;;;;;5075584;28;20044;-81
2022/04/04 13:56:13;;;;;;;5.85;1.38;;;;;;;;;;5061274;28;20030;-80
2022/04/04 13:58:41;;;;;;;4.88;1.63;;;;;;;;;;5092868;28;20067;-81
2022/04/04 14:01:06;;;;;;;4.95;1.40;;;;;;;;;;5078363;28;20041;-82
2022/04/04 14:03:32;;;;;;;4.47;1.50;;;;;;;;;;5062265;28;20490;-81
2022/04/04 14:05:59;;;;;;;9.32;2.03;;;;;;;;;;5078272;28;20433;-81
2022/04/04 14:08:25;;;;;;;6.63;1.63;;;;;;;;;;5079388;28;20048;-82
2022/04/04 14:10:54;;;;;;;8.75;1.75;;;;;;;;;;5078527;28;20577;-81
2022/04/04 14:13:20;;;;;;;6.63;1.38;;;;;;;;;;5079534;28;20031;-81
2022/04/04 14:15:45;;;;;;;4.57;1.30;;;;;;;;;;5041332;28;20028;-82
2022/04/04 14:18:11;;;;;;;5.07;1.38;;;;;;;;;;5075234;28;20474;-81
2022/04/04 14:20:36;;;;;;;5.00;1.50;;;;;;;;;;5058245;28;20066;-81
2022/04/04 14:23:03;;;;;;;5.70;1.48;;;;;;;;;;5058004;28;20093;-79
2022/04/04 14:25:28;;;;;;;9.52;1.80;;;;;;;;;;5042892;28;20043;-80
2022/04/04 14:27:54;;;;;;;5.05;1.30;;;;;;;;;;5094777;28;20044;-81
2022/04/04 14:30:20;;;;;;;3.78;1.10;;;;;;;;;;5094866;28;20035;-80
2022/04/04 14:32:46;;;;;;;6.63;1.20;;;;;;;;;;5091200;28;20046;-81
2022/04/04 14:35:12;;;;;;;8.60;1.25;;;;;;;;;;5058391;28;20088;-80
2022/04/04 14:37:37;;;;;;;5.95;1.33;;;;;;;;;;5074544;28;20040;-80
2022/04/04 14:40:03;;;;;;;8.65;1.25;;;;;;;;;;5058026;28;20032;-81
2022/04/04 14:42:28;;;;;;;5.13;1.23;;;;;;;;;;5074536;28;20044;-80
2022/04/04 14:44:56;;;;;;;5.82;1.45;;;;;;;;;;5057378;28;20039;-81
2022/04/04 14:47:21;;;;;;;4.28;1.10;;;;;;;;;;5074803;28;20036;-80
2022/04/04 14:49:47;;;;;;;7.18;1.63;;;;;;;;;;5074541;28;20123;-80